sensor_id;sensor_type;location;lat;lon;timestamp;temperature;humidity
11846;DHT22;5982;37.494;-8.758;2023-05-31T00:01:21;16.30;99.90
11846;DHT22;5982;37.494;-8.758;2023-05-31T00:03:50;16.30;99.90
11846;DHT22;5982;37.494;-8.758;2023-05-31T00:06:19;16.30;99.90
11846;DHT22;5982;37.494;-8.758;2023-05-31T00:08:47;16.20;99.90
11846;DHT22;5982;37.494;-8.758;2023-05-31T00:11:15;16.20;99.90
11846;DHT22;5982;37.494;-8.758;2023-05-31T00:13:43;16.30;99.90
11846;DHT22;5982;37.494;-8.758;2023-05-31T00:16:11;16.30;99.90
11846;DHT22;5982;37.494;-8.758;2023-05-31T00:18:41;16.30;99.90
11846;DHT22;5982;37.494;-8.758;2023-05-31T00:21:09;16.30;99.90
11846;DHT22;5982;37.494;-8.758;2023-05-31T00:23:38;16.30;99.90
11846;DHT22;5982;37.494;-8.758;2023-05-31T00:26:06;16.30;99.90
11846;DHT22;5982;37.494;-8.758;2023-05-31T00:28:34;16.30;99.90
11846;DHT22;5982;37.494;-8.758;2023-05-31T00:31:02;16.20;99.90
11846;DHT22;5982;37.494;-8.758;2023-05-31T00:33:31;16.10;99.90
11846;DHT22;5982;37.494;-8.758;2023-05-31T00:35:59;16.00;99.90
11846;DHT22;5982;37.494;-8.758;2023-05-31T00:38:26;15.90;99.90
11846;DHT22;5982;37.494;-8.758;2023-05-31T00:40:56;16.00;99.90
11846;DHT22;5982;37.494;-8.758;2023-05-31T00:43:23;16.10;99.90
11846;DHT22;5982;37.494;-8.758;2023-05-31T00:45:52;16.10;99.90
11846;DHT22;5982;37.494;-8.758;2023-05-31T00:48:19;16.10;99.90
11846;DHT22;5982;37.494;-8.758;2023-05-31T00:50:48;16.10;99.90
11846;DHT22;5982;37.494;-8.758;2023-05-31T00:53:24;16.00;99.90
11846;DHT22;5982;37.494;-8.758;2023-05-31T00:55:53;16.00;99.90
11846;DHT22;5982;37.494;-8.758;2023-05-31T00:58:22;16.00;99.90
11846;DHT22;5982;37.494;-8.758;2023-05-31T01:00:51;16.10;99.90
11846;DHT22;5982;37.494;-8.758;2023-05-31T01:03:19;16.10;99.90
11846;DHT22;5982;37.494;-8.758;2023-05-31T01:05:47;16.10;99.90
11846;DHT22;5982;37.494;-8.758;2023-05-31T01:08:15;15.90;99.90
11846;DHT22;5982;37.494;-8.758;2023-05-31T01:10:44;15.80;99.90
11846;DHT22;5982;37.494;-8.758;2023-05-31T01:13:16;15.70;99.90
11846;DHT22;5982;37.494;-8.758;2023-05-31T01:15:55;15.60;99.90
11846;DHT22;5982;37.494;-8.758;2023-05-31T01:18:26;15.60;99.90
11846;DHT22;5982;37.494;-8.758;2023-05-31T01:20:58;15.60;99.90
11846;DHT22;5982;37.494;-8.758;2023-05-31T01:23:38;15.60;99.90
11846;DHT22;5982;37.494;-8.758;2023-05-31T01:29:13;15.50;99.90
11846;DHT22;5982;37.494;-8.758;2023-05-31T01:31:45;15.50;99.90
11846;DHT22;5982;37.494;-8.758;2023-05-31T01:34:13;15.50;99.90
11846;DHT22;5982;37.494;-8.758;2023-05-31T01:36:42;15.50;99.90
11846;DHT22;5982;37.494;-8.758;2023-05-31T01:39:10;15.60;99.90
11846;DHT22;5982;37.494;-8.758;2023-05-31T01:41:40;15.70;99.90
11846;DHT22;5982;37.494;-8.758;2023-05-31T01:44:11;15.90;99.90
11846;DHT22;5982;37.494;-8.758;2023-05-31T01:46:40;15.90;99.90
11846;DHT22;5982;37.494;-8.758;2023-05-31T01:49:10;15.90;99.90
11846;DHT22;5982;37.494;-8.758;2023-05-31T01:51:39;15.80;99.90
11846;DHT22;5982;37.494;-8.758;2023-05-31T01:54:07;15.80;99.90
11846;DHT22;5982;37.494;-8.758;2023-05-31T01:56:36;15.80;99.90
11846;DHT22;5982;37.494;-8.758;2023-05-31T01:59:04;15.70;99.90
11846;DHT22;5982;37.494;-8.758;2023-05-31T02:01:36;15.70;99.90
11846;DHT22;5982;37.494;-8.758;2023-05-31T02:04:05;15.70;99.90
11846;DHT22;5982;37.494;-8.758;2023-05-31T02:09:02;15.60;99.90
11846;DHT22;5982;37.494;-8.758;2023-05-31T02:11:31;15.60;99.90
11846;DHT22;5982;37.494;-8.758;2023-05-31T02:13:59;15.60;99.90
11846;DHT22;5982;37.494;-8.758;2023-05-31T02:16:27;15.60;99.90
11846;DHT22;5982;37.494;-8.758;2023-05-31T02:18:57;15.70;99.90
11846;DHT22;5982;37.494;-8.758;2023-05-31T02:21:24;15.70;99.90
11846;DHT22;5982;37.494;-8.758;2023-05-31T02:23:52;15.70;99.90
11846;DHT22;5982;37.494;-8.758;2023-05-31T02:26:21;15.80;99.90
11846;DHT22;5982;37.494;-8.758;2023-05-31T02:28:49;15.80;99.90
11846;DHT22;5982;37.494;-8.758;2023-05-31T02:31:17;15.90;99.90
11846;DHT22;5982;37.494;-8.758;2023-05-31T02:33:46;16.00;99.90
11846;DHT22;5982;37.494;-8.758;2023-05-31T02:36:16;16.10;99.90
11846;DHT22;5982;37.494;-8.758;2023-05-31T02:38:44;16.10;99.90
11846;DHT22;5982;37.494;-8.758;2023-05-31T02:41:11;16.10;99.90
11846;DHT22;5982;37.494;-8.758;2023-05-31T02:43:39;16.10;99.90
11846;DHT22;5982;37.494;-8.758;2023-05-31T02:46:07;16.10;99.90
11846;DHT22;5982;37.494;-8.758;2023-05-31T02:48:35;16.00;99.90
11846;DHT22;5982;37.494;-8.758;2023-05-31T02:51:03;15.90;99.90
11846;DHT22;5982;37.494;-8.758;2023-05-31T02:53:32;15.80;99.90
11846;DHT22;5982;37.494;-8.758;2023-05-31T02:56:00;15.70;99.90
11846;DHT22;5982;37.494;-8.758;2023-05-31T02:58:27;15.70;99.90
11846;DHT22;5982;37.494;-8.758;2023-05-31T03:00:55;15.70;99.90
11846;DHT22;5982;37.494;-8.758;2023-05-31T03:03:23;15.70;99.90
11846;DHT22;5982;37.494;-8.758;2023-05-31T03:05:51;15.70;99.90
11846;DHT22;5982;37.494;-8.758;2023-05-31T03:08:19;15.80;99.90
11846;DHT22;5982;37.494;-8.758;2023-05-31T03:10:48;15.80;99.90
11846;DHT22;5982;37.494;-8.758;2023-05-31T03:13:16;15.70;99.90
11846;DHT22;5982;37.494;-8.758;2023-05-31T03:15:44;15.60;99.90
11846;DHT22;5982;37.494;-8.758;2023-05-31T03:18:12;15.50;99.90
11846;DHT22;5982;37.494;-8.758;2023-05-31T03:20:39;15.40;99.90
11846;DHT22;5982;37.494;-8.758;2023-05-31T03:23:08;15.50;99.90
11846;DHT22;5982;37.494;-8.758;2023-05-31T03:25:36;15.50;99.90
11846;DHT22;5982;37.494;-8.758;2023-05-31T03:28:07;15.60;99.90
11846;DHT22;5982;37.494;-8.758;2023-05-31T03:30:35;15.60;99.90
11846;DHT22;5982;37.494;-8.758;2023-05-31T03:33:04;15.60;99.90
11846;DHT22;5982;37.494;-8.758;2023-05-31T03:35:34;15.50;99.90
11846;DHT22;5982;37.494;-8.758;2023-05-31T03:38:03;15.60;99.90
11846;DHT22;5982;37.494;-8.758;2023-05-31T03:40:31;15.60;99.90
11846;DHT22;5982;37.494;-8.758;2023-05-31T03:42:59;15.60;99.90
11846;DHT22;5982;37.494;-8.758;2023-05-31T03:45:28;15.70;99.90
11846;DHT22;5982;37.494;-8.758;2023-05-31T03:47:55;15.70;99.90
11846;DHT22;5982;37.494;-8.758;2023-05-31T03:50:23;15.70;99.90
11846;DHT22;5982;37.494;-8.758;2023-05-31T03:52:51;15.70;99.90
11846;DHT22;5982;37.494;-8.758;2023-05-31T03:55:19;15.70;99.90
11846;DHT22;5982;37.494;-8.758;2023-05-31T03:57:47;15.60;99.90
11846;DHT22;5982;37.494;-8.758;2023-05-31T04:00:15;15.60;99.90
11846;DHT22;5982;37.494;-8.758;2023-05-31T04:02:45;15.70;99.90
11846;DHT22;5982;37.494;-8.758;2023-05-31T04:05:13;15.70;99.90
11846;DHT22;5982;37.494;-8.758;2023-05-31T04:07:41;15.70;99.90
11846;DHT22;5982;37.494;-8.758;2023-05-31T04:10:08;15.70;99.90
11846;DHT22;5982;37.494;-8.758;2023-05-31T04:12:36;15.80;99.90
11846;DHT22;5982;37.494;-8.758;2023-05-31T04:15:04;15.80;99.90
11846;DHT22;5982;37.494;-8.758;2023-05-31T04:17:33;15.90;99.90
11846;DHT22;5982;37.494;-8.758;2023-05-31T04:20:02;15.90;99.90
11846;DHT22;5982;37.494;-8.758;2023-05-31T04:22:33;16.00;99.90
11846;DHT22;5982;37.494;-8.758;2023-05-31T04:25:01;16.10;99.90
11846;DHT22;5982;37.494;-8.758;2023-05-31T04:27:28;16.20;99.90
11846;DHT22;5982;37.494;-8.758;2023-05-31T04:29:57;16.40;99.90
11846;DHT22;5982;37.494;-8.758;2023-05-31T04:32:26;16.50;99.90
11846;DHT22;5982;37.494;-8.758;2023-05-31T04:34:54;16.50;99.90
11846;DHT22;5982;37.494;-8.758;2023-05-31T04:37:25;16.60;99.90
11846;DHT22;5982;37.494;-8.758;2023-05-31T04:39:54;16.70;99.90
11846;DHT22;5982;37.494;-8.758;2023-05-31T04:42:22;16.70;99.90
11846;DHT22;5982;37.494;-8.758;2023-05-31T04:44:50;16.70;99.90
11846;DHT22;5982;37.494;-8.758;2023-05-31T04:47:21;16.70;99.90
11846;DHT22;5982;37.494;-8.758;2023-05-31T04:49:49;16.80;99.90
11846;DHT22;5982;37.494;-8.758;2023-05-31T04:52:16;16.80;99.90
11846;DHT22;5982;37.494;-8.758;2023-05-31T04:54:46;16.80;99.90
11846;DHT22;5982;37.494;-8.758;2023-05-31T04:57:13;16.80;99.90
11846;DHT22;5982;37.494;-8.758;2023-05-31T04:59:41;16.80;99.90
11846;DHT22;5982;37.494;-8.758;2023-05-31T05:02:09;16.80;99.90
11846;DHT22;5982;37.494;-8.758;2023-05-31T05:04:37;16.70;99.90
11846;DHT22;5982;37.494;-8.758;2023-05-31T05:07:05;16.60;99.90
11846;DHT22;5982;37.494;-8.758;2023-05-31T05:09:33;16.50;99.90
11846;DHT22;5982;37.494;-8.758;2023-05-31T05:12:02;16.50;99.90
11846;DHT22;5982;37.494;-8.758;2023-05-31T05:14:30;16.50;99.90
11846;DHT22;5982;37.494;-8.758;2023-05-31T05:16:58;16.50;99.90
11846;DHT22;5982;37.494;-8.758;2023-05-31T05:19:26;16.50;99.90
11846;DHT22;5982;37.494;-8.758;2023-05-31T05:21:53;16.50;99.90
11846;DHT22;5982;37.494;-8.758;2023-05-31T05:24:21;16.40;99.90
11846;DHT22;5982;37.494;-8.758;2023-05-31T05:26:49;16.30;99.90
11846;DHT22;5982;37.494;-8.758;2023-05-31T05:29:18;16.30;99.90
11846;DHT22;5982;37.494;-8.758;2023-05-31T05:31:46;16.30;99.90
11846;DHT22;5982;37.494;-8.758;2023-05-31T05:34:14;16.30;99.90
11846;DHT22;5982;37.494;-8.758;2023-05-31T05:36:42;16.40;99.90
11846;DHT22;5982;37.494;-8.758;2023-05-31T05:39:09;16.40;99.90
11846;DHT22;5982;37.494;-8.758;2023-05-31T05:41:37;16.50;99.90
11846;DHT22;5982;37.494;-8.758;2023-05-31T05:44:05;16.80;99.90
11846;DHT22;5982;37.494;-8.758;2023-05-31T05:46:34;17.20;99.90
11846;DHT22;5982;37.494;-8.758;2023-05-31T05:49:02;17.90;99.90
11846;DHT22;5982;37.494;-8.758;2023-05-31T05:51:29;18.80;99.90
11846;DHT22;5982;37.494;-8.758;2023-05-31T05:53:57;19.40;99.90
11846;DHT22;5982;37.494;-8.758;2023-05-31T05:56:25;19.40;99.90
11846;DHT22;5982;37.494;-8.758;2023-05-31T05:58:53;19.40;99.90
11846;DHT22;5982;37.494;-8.758;2023-05-31T06:01:21;20.00;99.90
11846;DHT22;5982;37.494;-8.758;2023-05-31T06:03:55;20.90;99.90
11846;DHT22;5982;37.494;-8.758;2023-05-31T06:06:22;22.00;99.90
11846;DHT22;5982;37.494;-8.758;2023-05-31T06:08:50;23.10;99.90
11846;DHT22;5982;37.494;-8.758;2023-05-31T06:11:18;23.90;99.90
11846;DHT22;5982;37.494;-8.758;2023-05-31T06:13:46;24.20;99.90
11846;DHT22;5982;37.494;-8.758;2023-05-31T06:16:14;24.40;99.90
11846;DHT22;5982;37.494;-8.758;2023-05-31T06:18:41;24.90;99.90
11846;DHT22;5982;37.494;-8.758;2023-05-31T06:21:11;25.30;99.90
11846;DHT22;5982;37.494;-8.758;2023-05-31T06:23:38;25.60;99.90
11846;DHT22;5982;37.494;-8.758;2023-05-31T06:26:06;25.80;99.90
11846;DHT22;5982;37.494;-8.758;2023-05-31T06:28:34;26.10;99.90
11846;DHT22;5982;37.494;-8.758;2023-05-31T06:31:02;26.60;99.90
11846;DHT22;5982;37.494;-8.758;2023-05-31T06:33:30;27.10;99.90
11846;DHT22;5982;37.494;-8.758;2023-05-31T06:35:58;27.30;99.90
11846;DHT22;5982;37.494;-8.758;2023-05-31T06:38:27;27.50;99.90
11846;DHT22;5982;37.494;-8.758;2023-05-31T06:40:55;27.80;99.90
11846;DHT22;5982;37.494;-8.758;2023-05-31T06:43:23;28.10;99.90
11846;DHT22;5982;37.494;-8.758;2023-05-31T06:45:50;27.40;99.90
11846;DHT22;5982;37.494;-8.758;2023-05-31T06:48:18;26.40;99.90
11846;DHT22;5982;37.494;-8.758;2023-05-31T06:50:46;24.70;99.90
11846;DHT22;5982;37.494;-8.758;2023-05-31T06:53:13;23.50;99.90
11846;DHT22;5982;37.494;-8.758;2023-05-31T06:55:43;23.70;99.90
11846;DHT22;5982;37.494;-8.758;2023-05-31T06:58:10;25.00;99.90
11846;DHT22;5982;37.494;-8.758;2023-05-31T07:00:39;26.10;99.90
11846;DHT22;5982;37.494;-8.758;2023-05-31T07:03:07;26.10;99.90
11846;DHT22;5982;37.494;-8.758;2023-05-31T07:05:35;26.40;99.90
11846;DHT22;5982;37.494;-8.758;2023-05-31T07:08:03;25.70;99.90
11846;DHT22;5982;37.494;-8.758;2023-05-31T07:10:31;25.00;99.90
11846;DHT22;5982;37.494;-8.758;2023-05-31T07:13:00;24.70;99.90
11846;DHT22;5982;37.494;-8.758;2023-05-31T07:15:28;23.90;99.90
11846;DHT22;5982;37.494;-8.758;2023-05-31T07:17:56;23.20;99.90
11846;DHT22;5982;37.494;-8.758;2023-05-31T07:20:23;23.00;99.90
11846;DHT22;5982;37.494;-8.758;2023-05-31T07:22:51;22.90;99.90
11846;DHT22;5982;37.494;-8.758;2023-05-31T07:25:19;22.90;99.90
11846;DHT22;5982;37.494;-8.758;2023-05-31T07:27:47;22.90;99.90
11846;DHT22;5982;37.494;-8.758;2023-05-31T07:30:16;23.00;99.90
11846;DHT22;5982;37.494;-8.758;2023-05-31T07:32:44;23.00;99.90
11846;DHT22;5982;37.494;-8.758;2023-05-31T07:35:11;22.70;99.90
11846;DHT22;5982;37.494;-8.758;2023-05-31T07:37:39;22.50;99.90
11846;DHT22;5982;37.494;-8.758;2023-05-31T07:40:07;22.50;99.90
11846;DHT22;5982;37.494;-8.758;2023-05-31T07:42:35;22.60;99.90
11846;DHT22;5982;37.494;-8.758;2023-05-31T07:45:03;22.80;99.90
11846;DHT22;5982;37.494;-8.758;2023-05-31T07:47:34;22.80;99.90
11846;DHT22;5982;37.494;-8.758;2023-05-31T07:50:02;22.60;99.90
11846;DHT22;5982;37.494;-8.758;2023-05-31T07:52:30;22.40;99.90
11846;DHT22;5982;37.494;-8.758;2023-05-31T07:54:58;22.60;99.90
11846;DHT22;5982;37.494;-8.758;2023-05-31T07:57:26;22.60;99.90
11846;DHT22;5982;37.494;-8.758;2023-05-31T07:59:54;22.50;99.90
11846;DHT22;5982;37.494;-8.758;2023-05-31T08:02:21;22.50;99.90
11846;DHT22;5982;37.494;-8.758;2023-05-31T08:04:50;22.70;99.90
11846;DHT22;5982;37.494;-8.758;2023-05-31T08:07:20;22.60;99.90
11846;DHT22;5982;37.494;-8.758;2023-05-31T08:09:47;22.70;99.90
11846;DHT22;5982;37.494;-8.758;2023-05-31T08:12:15;23.00;99.90
11846;DHT22;5982;37.494;-8.758;2023-05-31T08:14:43;23.40;99.90
11846;DHT22;5982;37.494;-8.758;2023-05-31T08:17:11;23.30;99.90
11846;DHT22;5982;37.494;-8.758;2023-05-31T08:19:38;23.20;99.90
11846;DHT22;5982;37.494;-8.758;2023-05-31T08:22:07;23.40;99.90
11846;DHT22;5982;37.494;-8.758;2023-05-31T08:24:36;23.60;99.90
11846;DHT22;5982;37.494;-8.758;2023-05-31T08:27:03;23.80;99.90
11846;DHT22;5982;37.494;-8.758;2023-05-31T08:29:32;24.10;99.90
11846;DHT22;5982;37.494;-8.758;2023-05-31T08:32:00;24.20;99.90
11846;DHT22;5982;37.494;-8.758;2023-05-31T08:34:28;24.20;99.90
11846;DHT22;5982;37.494;-8.758;2023-05-31T08:36:56;24.10;99.90
11846;DHT22;5982;37.494;-8.758;2023-05-31T08:39:25;23.90;99.90
11846;DHT22;5982;37.494;-8.758;2023-05-31T08:41:53;24.00;99.90
11846;DHT22;5982;37.494;-8.758;2023-05-31T08:44:27;24.00;99.90
11846;DHT22;5982;37.494;-8.758;2023-05-31T08:46:57;24.20;99.90
11846;DHT22;5982;37.494;-8.758;2023-05-31T08:49:25;24.10;99.90
11846;DHT22;5982;37.494;-8.758;2023-05-31T08:51:53;24.10;99.90
11846;DHT22;5982;37.494;-8.758;2023-05-31T08:54:21;24.40;99.90
11846;DHT22;5982;37.494;-8.758;2023-05-31T08:56:51;24.60;99.90
11846;DHT22;5982;37.494;-8.758;2023-05-31T08:59:19;24.70;99.90
11846;DHT22;5982;37.494;-8.758;2023-05-31T09:01:47;24.70;99.90
11846;DHT22;5982;37.494;-8.758;2023-05-31T09:04:14;24.40;99.90
11846;DHT22;5982;37.494;-8.758;2023-05-31T09:06:43;24.50;99.90
11846;DHT22;5982;37.494;-8.758;2023-05-31T09:09:11;24.90;99.90
11846;DHT22;5982;37.494;-8.758;2023-05-31T09:11:39;24.90;99.90
11846;DHT22;5982;37.494;-8.758;2023-05-31T09:14:08;25.00;99.90
11846;DHT22;5982;37.494;-8.758;2023-05-31T09:16:36;25.30;99.90
11846;DHT22;5982;37.494;-8.758;2023-05-31T09:19:04;25.40;99.90
11846;DHT22;5982;37.494;-8.758;2023-05-31T09:21:37;25.40;99.90
11846;DHT22;5982;37.494;-8.758;2023-05-31T09:24:05;25.40;99.90
11846;DHT22;5982;37.494;-8.758;2023-05-31T09:26:33;25.50;99.90
11846;DHT22;5982;37.494;-8.758;2023-05-31T09:29:01;25.40;99.90
11846;DHT22;5982;37.494;-8.758;2023-05-31T09:31:31;25.50;99.90
11846;DHT22;5982;37.494;-8.758;2023-05-31T09:33:58;25.60;99.90
11846;DHT22;5982;37.494;-8.758;2023-05-31T09:36:26;25.20;99.90
11846;DHT22;5982;37.494;-8.758;2023-05-31T09:38:58;25.60;99.90
11846;DHT22;5982;37.494;-8.758;2023-05-31T09:41:30;26.10;99.90
11846;DHT22;5982;37.494;-8.758;2023-05-31T09:43:58;26.60;99.90
11846;DHT22;5982;37.494;-8.758;2023-05-31T09:46:26;27.00;99.90
11846;DHT22;5982;37.494;-8.758;2023-05-31T09:48:59;26.90;99.90
11846;DHT22;5982;37.494;-8.758;2023-05-31T09:51:27;27.00;99.90
11846;DHT22;5982;37.494;-8.758;2023-05-31T09:53:58;27.30;99.90
11846;DHT22;5982;37.494;-8.758;2023-05-31T09:56:35;27.30;99.90
11846;DHT22;5982;37.494;-8.758;2023-05-31T09:59:04;27.40;99.90
11846;DHT22;5982;37.494;-8.758;2023-05-31T10:01:33;27.40;99.90
11846;DHT22;5982;37.494;-8.758;2023-05-31T10:04:02;27.20;99.90
11846;DHT22;5982;37.494;-8.758;2023-05-31T10:06:31;27.10;99.90
11846;DHT22;5982;37.494;-8.758;2023-05-31T10:09:01;26.80;99.90
11846;DHT22;5982;37.494;-8.758;2023-05-31T10:11:31;26.70;99.90
11846;DHT22;5982;37.494;-8.758;2023-05-31T10:14:01;26.90;99.90
11846;DHT22;5982;37.494;-8.758;2023-05-31T10:16:32;27.40;99.90
11846;DHT22;5982;37.494;-8.758;2023-05-31T10:19:09;27.80;99.90
11846;DHT22;5982;37.494;-8.758;2023-05-31T10:21:40;27.40;99.90
11846;DHT22;5982;37.494;-8.758;2023-05-31T10:24:12;27.20;99.90
11846;DHT22;5982;37.494;-8.758;2023-05-31T10:26:42;26.90;99.90
11846;DHT22;5982;37.494;-8.758;2023-05-31T10:29:13;27.10;99.90
11846;DHT22;5982;37.494;-8.758;2023-05-31T10:31:45;26.90;99.90
11846;DHT22;5982;37.494;-8.758;2023-05-31T10:34:18;26.90;99.90
11846;DHT22;5982;37.494;-8.758;2023-05-31T10:36:47;26.90;99.90
11846;DHT22;5982;37.494;-8.758;2023-05-31T10:39:17;26.80;99.90
11846;DHT22;5982;37.494;-8.758;2023-05-31T10:41:52;26.50;99.90
11846;DHT22;5982;37.494;-8.758;2023-05-31T10:44:24;26.40;99.90
11846;DHT22;5982;37.494;-8.758;2023-05-31T10:46:55;26.60;99.90
11846;DHT22;5982;37.494;-8.758;2023-05-31T10:49:29;26.90;99.90
11846;DHT22;5982;37.494;-8.758;2023-05-31T10:52:03;27.00;99.90
11846;DHT22;5982;37.494;-8.758;2023-05-31T10:54:32;26.80;99.90
11846;DHT22;5982;37.494;-8.758;2023-05-31T10:57:02;26.50;99.90
11846;DHT22;5982;37.494;-8.758;2023-05-31T10:59:39;26.50;99.90
11846;DHT22;5982;37.494;-8.758;2023-05-31T11:02:08;26.60;99.90
11846;DHT22;5982;37.494;-8.758;2023-05-31T11:04:38;26.20;99.90
11846;DHT22;5982;37.494;-8.758;2023-05-31T11:07:13;26.00;99.90
11846;DHT22;5982;37.494;-8.758;2023-05-31T11:09:55;25.90;99.90
11846;DHT22;5982;37.494;-8.758;2023-05-31T11:12:34;26.20;99.90
11846;DHT22;5982;37.494;-8.758;2023-05-31T11:15:04;26.50;99.90
11846;DHT22;5982;37.494;-8.758;2023-05-31T11:17:39;26.90;99.90
11846;DHT22;5982;37.494;-8.758;2023-05-31T11:20:16;27.10;99.90
11846;DHT22;5982;37.494;-8.758;2023-05-31T11:22:43;27.30;99.90
11846;DHT22;5982;37.494;-8.758;2023-05-31T11:25:17;27.30;99.90
11846;DHT22;5982;37.494;-8.758;2023-05-31T11:27:47;27.20;99.90
11846;DHT22;5982;37.494;-8.758;2023-05-31T11:30:15;26.90;99.90
11846;DHT22;5982;37.494;-8.758;2023-05-31T11:35:42;26.60;99.90
11846;DHT22;5982;37.494;-8.758;2023-05-31T11:38:10;26.30;99.90
11846;DHT22;5982;37.494;-8.758;2023-05-31T11:40:38;26.20;99.90
11846;DHT22;5982;37.494;-8.758;2023-05-31T11:43:06;26.10;99.90
11846;DHT22;5982;37.494;-8.758;2023-05-31T11:45:40;25.80;99.90
11846;DHT22;5982;37.494;-8.758;2023-05-31T11:51:07;25.30;99.90
11846;DHT22;5982;37.494;-8.758;2023-05-31T11:53:35;25.20;99.90
11846;DHT22;5982;37.494;-8.758;2023-05-31T11:56:03;25.30;99.90
11846;DHT22;5982;37.494;-8.758;2023-05-31T11:58:38;25.50;99.90
11846;DHT22;5982;37.494;-8.758;2023-05-31T12:01:05;25.70;99.90
11846;DHT22;5982;37.494;-8.758;2023-05-31T12:03:34;25.90;99.90
11846;DHT22;5982;37.494;-8.758;2023-05-31T12:06:08;26.30;99.90
11846;DHT22;5982;37.494;-8.758;2023-05-31T12:08:36;26.60;99.90
11846;DHT22;5982;37.494;-8.758;2023-05-31T12:11:04;26.90;99.90
11846;DHT22;5982;37.494;-8.758;2023-05-31T12:13:32;27.10;99.90
11846;DHT22;5982;37.494;-8.758;2023-05-31T12:16:02;27.00;99.90
11846;DHT22;5982;37.494;-8.758;2023-05-31T12:18:31;27.30;99.90
11846;DHT22;5982;37.494;-8.758;2023-05-31T12:21:03;27.40;99.90
11846;DHT22;5982;37.494;-8.758;2023-05-31T12:23:34;27.40;99.90
11846;DHT22;5982;37.494;-8.758;2023-05-31T12:26:18;27.50;99.90
11846;DHT22;5982;37.494;-8.758;2023-05-31T12:28:47;27.50;99.90
11846;DHT22;5982;37.494;-8.758;2023-05-31T12:31:19;27.40;99.90
11846;DHT22;5982;37.494;-8.758;2023-05-31T12:33:52;27.50;99.90
11846;DHT22;5982;37.494;-8.758;2023-05-31T12:36:25;27.40;99.90
11846;DHT22;5982;37.494;-8.758;2023-05-31T12:38:55;27.20;99.90
11846;DHT22;5982;37.494;-8.758;2023-05-31T12:41:23;27.00;99.90
11846;DHT22;5982;37.494;-8.758;2023-05-31T12:43:52;26.90;99.90
11846;DHT22;5982;37.494;-8.758;2023-05-31T12:46:20;27.10;99.90
11846;DHT22;5982;37.494;-8.758;2023-05-31T12:48:48;27.10;99.90
11846;DHT22;5982;37.494;-8.758;2023-05-31T12:51:19;27.10;99.90
11846;DHT22;5982;37.494;-8.758;2023-05-31T12:53:48;27.10;99.90
11846;DHT22;5982;37.494;-8.758;2023-05-31T12:56:18;27.00;99.90
11846;DHT22;5982;37.494;-8.758;2023-05-31T12:58:47;26.80;99.90
11846;DHT22;5982;37.494;-8.758;2023-05-31T13:01:16;26.50;99.90
11846;DHT22;5982;37.494;-8.758;2023-05-31T13:03:45;26.50;99.90
11846;DHT22;5982;37.494;-8.758;2023-05-31T13:06:14;26.50;99.90
11846;DHT22;5982;37.494;-8.758;2023-05-31T13:08:42;26.50;99.90
11846;DHT22;5982;37.494;-8.758;2023-05-31T13:11:09;26.40;99.90
11846;DHT22;5982;37.494;-8.758;2023-05-31T13:13:39;26.40;99.90
11846;DHT22;5982;37.494;-8.758;2023-05-31T13:16:08;26.40;99.90
11846;DHT22;5982;37.494;-8.758;2023-05-31T13:18:36;26.50;99.90
11846;DHT22;5982;37.494;-8.758;2023-05-31T13:21:03;26.70;99.90
11846;DHT22;5982;37.494;-8.758;2023-05-31T13:23:31;27.00;99.90
11846;DHT22;5982;37.494;-8.758;2023-05-31T13:25:59;26.90;99.90
11846;DHT22;5982;37.494;-8.758;2023-05-31T13:28:26;26.80;99.90
11846;DHT22;5982;37.494;-8.758;2023-05-31T13:30:56;26.80;99.90
11846;DHT22;5982;37.494;-8.758;2023-05-31T13:33:23;26.70;99.90
11846;DHT22;5982;37.494;-8.758;2023-05-31T13:35:53;26.60;99.90
11846;DHT22;5982;37.494;-8.758;2023-05-31T13:38:22;26.60;99.90
11846;DHT22;5982;37.494;-8.758;2023-05-31T13:40:50;26.70;99.90
11846;DHT22;5982;37.494;-8.758;2023-05-31T13:43:17;26.80;99.90
11846;DHT22;5982;37.494;-8.758;2023-05-31T13:45:45;26.90;99.90
11846;DHT22;5982;37.494;-8.758;2023-05-31T13:48:14;27.10;99.90
11846;DHT22;5982;37.494;-8.758;2023-05-31T13:50:42;27.20;99.90
11846;DHT22;5982;37.494;-8.758;2023-05-31T13:53:10;27.10;99.90
11846;DHT22;5982;37.494;-8.758;2023-05-31T13:55:38;27.00;99.90
11846;DHT22;5982;37.494;-8.758;2023-05-31T13:58:06;26.80;99.90
11846;DHT22;5982;37.494;-8.758;2023-05-31T14:00:34;26.70;99.90
11846;DHT22;5982;37.494;-8.758;2023-05-31T14:03:01;26.60;99.90
11846;DHT22;5982;37.494;-8.758;2023-05-31T14:05:31;26.60;99.90
11846;DHT22;5982;37.494;-8.758;2023-05-31T14:07:58;26.60;99.90
11846;DHT22;5982;37.494;-8.758;2023-05-31T14:10:26;26.70;99.90
11846;DHT22;5982;37.494;-8.758;2023-05-31T14:12:54;26.80;99.90
11846;DHT22;5982;37.494;-8.758;2023-05-31T14:15:22;26.90;99.90
11846;DHT22;5982;37.494;-8.758;2023-05-31T14:17:49;26.80;99.90
11846;DHT22;5982;37.494;-8.758;2023-05-31T14:20:17;26.70;99.90
11846;DHT22;5982;37.494;-8.758;2023-05-31T14:22:47;26.80;99.90
11846;DHT22;5982;37.494;-8.758;2023-05-31T14:25:14;26.80;99.90
11846;DHT22;5982;37.494;-8.758;2023-05-31T14:27:42;26.70;99.90
11846;DHT22;5982;37.494;-8.758;2023-05-31T14:30:10;26.80;99.90
11846;DHT22;5982;37.494;-8.758;2023-05-31T14:32:39;27.10;99.90
11846;DHT22;5982;37.494;-8.758;2023-05-31T14:35:07;27.10;99.90
11846;DHT22;5982;37.494;-8.758;2023-05-31T14:37:37;27.10;99.90
11846;DHT22;5982;37.494;-8.758;2023-05-31T14:40:07;27.10;99.90
11846;DHT22;5982;37.494;-8.758;2023-05-31T14:42:35;27.10;99.90
11846;DHT22;5982;37.494;-8.758;2023-05-31T14:45:03;27.10;99.90
11846;DHT22;5982;37.494;-8.758;2023-05-31T14:47:32;27.00;99.90
11846;DHT22;5982;37.494;-8.758;2023-05-31T14:50:02;27.00;99.90
11846;DHT22;5982;37.494;-8.758;2023-05-31T14:52:30;27.10;99.90
11846;DHT22;5982;37.494;-8.758;2023-05-31T14:54:57;27.10;99.90
11846;DHT22;5982;37.494;-8.758;2023-05-31T14:57:27;27.10;99.90
11846;DHT22;5982;37.494;-8.758;2023-05-31T14:59:54;27.20;99.90
11846;DHT22;5982;37.494;-8.758;2023-05-31T15:02:22;27.30;99.90
11846;DHT22;5982;37.494;-8.758;2023-05-31T15:04:50;27.20;99.90
11846;DHT22;5982;37.494;-8.758;2023-05-31T15:07:17;27.10;99.90
11846;DHT22;5982;37.494;-8.758;2023-05-31T15:09:45;27.00;99.90
11846;DHT22;5982;37.494;-8.758;2023-05-31T15:12:13;27.00;99.90
11846;DHT22;5982;37.494;-8.758;2023-05-31T15:14:42;27.10;99.90
11846;DHT22;5982;37.494;-8.758;2023-05-31T15:17:10;27.10;99.90
11846;DHT22;5982;37.494;-8.758;2023-05-31T15:19:38;27.20;99.90
11846;DHT22;5982;37.494;-8.758;2023-05-31T15:22:05;27.30;99.90
11846;DHT22;5982;37.494;-8.758;2023-05-31T15:24:33;27.40;99.90
11846;DHT22;5982;37.494;-8.758;2023-05-31T15:27:01;27.40;99.90
11846;DHT22;5982;37.494;-8.758;2023-05-31T15:29:29;27.50;99.90
11846;DHT22;5982;37.494;-8.758;2023-05-31T15:31:58;27.40;99.90
11846;DHT22;5982;37.494;-8.758;2023-05-31T15:34:28;27.20;99.90
11846;DHT22;5982;37.494;-8.758;2023-05-31T15:36:56;27.10;99.90
11846;DHT22;5982;37.494;-8.758;2023-05-31T15:39:24;27.00;99.90
11846;DHT22;5982;37.494;-8.758;2023-05-31T15:41:52;27.00;99.90
11846;DHT22;5982;37.494;-8.758;2023-05-31T15:44:20;26.90;99.90
11846;DHT22;5982;37.494;-8.758;2023-05-31T15:46:47;26.90;99.90
11846;DHT22;5982;37.494;-8.758;2023-05-31T15:49:16;27.20;99.90
11846;DHT22;5982;37.494;-8.758;2023-05-31T15:51:44;27.20;99.90